sensor_id;sensor_type;location;lat;lon;timestamp;P1;durP1;ratioP1;P2;durP2;ratioP2
14066;SDS011;7108;42.684;23.350;2023-02-03T00:00:59;184.90;;;71.83;;
14066;SDS011;7108;42.684;23.350;2023-02-03T00:03:25;177.02;;;70.85;;
14066;SDS011;7108;42.684;23.350;2023-02-03T00:05:51;216.20;;;75.03;;
14066;SDS011;7108;42.684;23.350;2023-02-03T00:08:17;211.30;;;73.53;;
14066;SDS011;7108;42.684;23.350;2023-02-03T00:10:44;187.02;;;71.80;;
14066;SDS011;7108;42.684;23.350;2023-02-03T00:13:10;204.82;;;74.13;;
14066;SDS011;7108;42.684;23.350;2023-02-03T00:15:35;177.50;;;69.93;;
14066;SDS011;7108;42.684;23.350;2023-02-03T00:18:01;180.30;;;72.07;;
14066;SDS011;7108;42.684;23.350;2023-02-03T00:20:26;187.33;;;72.33;;
14066;SDS011;7108;42.684;23.350;2023-02-03T00:22:52;221.60;;;75.57;;
14066;SDS011;7108;42.684;23.350;2023-02-03T00:25:17;218.83;;;75.40;;
14066;SDS011;7108;42.684;23.350;2023-02-03T00:27:43;211.00;;;77.10;;
14066;SDS011;7108;42.684;23.350;2023-02-03T00:30:09;187.27;;;71.93;;
14066;SDS011;7108;42.684;23.350;2023-02-03T00:32:36;184.07;;;72.75;;
14066;SDS011;7108;42.684;23.350;2023-02-03T00:35:01;174.57;;;72.77;;
14066;SDS011;7108;42.684;23.350;2023-02-03T00:37:27;187.03;;;72.23;;
14066;SDS011;7108;42.684;23.350;2023-02-03T00:39:52;234.73;;;77.73;;
14066;SDS011;7108;42.684;23.350;2023-02-03T00:42:17;214.67;;;73.10;;
14066;SDS011;7108;42.684;23.350;2023-02-03T00:44:43;218.80;;;76.90;;
14066;SDS011;7108;42.684;23.350;2023-02-03T00:47:08;205.37;;;73.67;;
14066;SDS011;7108;42.684;23.350;2023-02-03T00:49:34;171.80;;;70.27;;
14066;SDS011;7108;42.684;23.350;2023-02-03T00:51:59;183.47;;;72.03;;
14066;SDS011;7108;42.684;23.350;2023-02-03T00:54:25;184.37;;;69.57;;
14066;SDS011;7108;42.684;23.350;2023-02-03T00:56:50;203.67;;;73.60;;
14066;SDS011;7108;42.684;23.350;2023-02-03T00:59:16;226.30;;;75.10;;
14066;SDS011;7108;42.684;23.350;2023-02-03T01:01:41;200.67;;;74.47;;
14066;SDS011;7108;42.684;23.350;2023-02-03T01:04:06;190.37;;;72.13;;
14066;SDS011;7108;42.684;23.350;2023-02-03T01:06:32;169.23;;;71.07;;
14066;SDS011;7108;42.684;23.350;2023-02-03T01:08:57;190.47;;;75.33;;
14066;SDS011;7108;42.684;23.350;2023-02-03T01:11:24;227.77;;;76.73;;
14066;SDS011;7108;42.684;23.350;2023-02-03T01:13:54;192.52;;;71.47;;
14066;SDS011;7108;42.684;23.350;2023-02-03T01:16:22;197.30;;;72.90;;
14066;SDS011;7108;42.684;23.350;2023-02-03T01:18:48;208.50;;;75.43;;
14066;SDS011;7108;42.684;23.350;2023-02-03T01:21:15;226.60;;;76.22;;
14066;SDS011;7108;42.684;23.350;2023-02-03T01:23:43;212.82;;;75.28;;
14066;SDS011;7108;42.684;23.350;2023-02-03T01:26:13;196.47;;;74.30;;
14066;SDS011;7108;42.684;23.350;2023-02-03T01:28:40;202.27;;;74.75;;
14066;SDS011;7108;42.684;23.350;2023-02-03T01:31:10;163.95;;;70.03;;
14066;SDS011;7108;42.684;23.350;2023-02-03T01:33:37;181.80;;;72.20;;
14066;SDS011;7108;42.684;23.350;2023-02-03T01:36:05;181.70;;;72.28;;
14066;SDS011;7108;42.684;23.350;2023-02-03T01:38:32;172.85;;;70.50;;
14066;SDS011;7108;42.684;23.350;2023-02-03T01:40:57;160.53;;;68.27;;
14066;SDS011;7108;42.684;23.350;2023-02-03T01:43:27;188.40;;;72.00;;
14066;SDS011;7108;42.684;23.350;2023-02-03T01:45:57;165.55;;;69.47;;
14066;SDS011;7108;42.684;23.350;2023-02-03T01:48:34;178.35;;;69.40;;
14066;SDS011;7108;42.684;23.350;2023-02-03T01:51:00;176.98;;;71.75;;
14066;SDS011;7108;42.684;23.350;2023-02-03T01:53:26;163.23;;;69.75;;
14066;SDS011;7108;42.684;23.350;2023-02-03T01:55:52;191.83;;;72.77;;
14066;SDS011;7108;42.684;23.350;2023-02-03T01:58:25;213.70;;;74.63;;
14066;SDS011;7108;42.684;23.350;2023-02-03T02:00:54;202.88;;;74.90;;
14066;SDS011;7108;42.684;23.350;2023-02-03T02:03:23;207.05;;;73.50;;
14066;SDS011;7108;42.684;23.350;2023-02-03T02:05:55;206.18;;;75.47;;
14066;SDS011;7108;42.684;23.350;2023-02-03T02:08:27;178.13;;;71.95;;
14066;SDS011;7108;42.684;23.350;2023-02-03T02:10:53;201.70;;;74.50;;
14066;SDS011;7108;42.684;23.350;2023-02-03T02:13:20;212.37;;;75.63;;
14066;SDS011;7108;42.684;23.350;2023-02-03T02:27:30;199.35;;;74.70;;
14066;SDS011;7108;42.684;23.350;2023-02-03T02:29:40;163.75;;;69.85;;
14066;SDS011;7108;42.684;23.350;2023-02-03T02:35:37;210.65;;;73.70;;
14066;SDS011;7108;42.684;23.350;2023-02-03T02:41:34;200.85;;;74.47;;
14066;SDS011;7108;42.684;23.350;2023-02-03T02:46:38;171.90;;;72.03;;
14066;SDS011;7108;42.684;23.350;2023-02-03T02:51:45;186.25;;;72.00;;
14066;SDS011;7108;42.684;23.350;2023-02-03T02:54:13;206.07;;;72.97;;
14066;SDS011;7108;42.684;23.350;2023-02-03T02:56:42;191.48;;;73.72;;
14066;SDS011;7108;42.684;23.350;2023-02-03T02:59:12;196.88;;;73.55;;
14066;SDS011;7108;42.684;23.350;2023-02-03T03:01:39;172.15;;;70.82;;
14066;SDS011;7108;42.684;23.350;2023-02-03T03:04:05;168.88;;;69.32;;
14066;SDS011;7108;42.684;23.350;2023-02-03T03:06:38;166.10;;;69.78;;
14066;SDS011;7108;42.684;23.350;2023-02-03T03:09:13;180.90;;;73.97;;
14066;SDS011;7108;42.684;23.350;2023-02-03T03:11:52;198.55;;;71.72;;
14066;SDS011;7108;42.684;23.350;2023-02-03T03:14:22;207.82;;;73.15;;
14066;SDS011;7108;42.684;23.350;2023-02-03T03:16:52;191.65;;;75.00;;
14066;SDS011;7108;42.684;23.350;2023-02-03T03:19:26;203.00;;;73.45;;
14066;SDS011;7108;42.684;23.350;2023-02-03T03:21:57;168.70;;;71.72;;
14066;SDS011;7108;42.684;23.350;2023-02-03T03:24:30;184.90;;;71.88;;
14066;SDS011;7108;42.684;23.350;2023-02-03T03:27:19;160.57;;;68.90;;
14066;SDS011;7108;42.684;23.350;2023-02-03T03:29:55;201.88;;;73.75;;
14066;SDS011;7108;42.684;23.350;2023-02-03T03:32:26;181.10;;;71.50;;
14066;SDS011;7108;42.684;23.350;2023-02-03T03:34:52;189.65;;;72.57;;
14066;SDS011;7108;42.684;23.350;2023-02-03T03:37:21;213.05;;;74.07;;
14066;SDS011;7108;42.684;23.350;2023-02-03T03:39:57;197.15;;;75.35;;
14066;SDS011;7108;42.684;23.350;2023-02-03T03:42:30;200.65;;;72.85;;
14066;SDS011;7108;42.684;23.350;2023-02-03T03:45:14;186.55;;;74.00;;
14066;SDS011;7108;42.684;23.350;2023-02-03T03:47:49;183.00;;;74.65;;
14066;SDS011;7108;42.684;23.350;2023-02-03T03:50:20;217.02;;;73.70;;
14066;SDS011;7108;42.684;23.350;2023-02-03T03:52:50;182.75;;;72.45;;
14066;SDS011;7108;42.684;23.350;2023-02-03T03:55:17;208.40;;;75.97;;
14066;SDS011;7108;42.684;23.350;2023-02-03T03:57:45;175.82;;;70.22;;
14066;SDS011;7108;42.684;23.350;2023-02-03T04:00:19;214.85;;;77.28;;
14066;SDS011;7108;42.684;23.350;2023-02-03T04:02:49;193.27;;;73.68;;
14066;SDS011;7108;42.684;23.350;2023-02-03T04:05:17;216.15;;;75.47;;
14066;SDS011;7108;42.684;23.350;2023-02-03T04:07:44;209.63;;;75.53;;
14066;SDS011;7108;42.684;23.350;2023-02-03T04:10:24;191.85;;;73.53;;
14066;SDS011;7108;42.684;23.350;2023-02-03T04:12:55;197.20;;;73.93;;
14066;SDS011;7108;42.684;23.350;2023-02-03T04:15:21;230.07;;;76.50;;
14066;SDS011;7108;42.684;23.350;2023-02-03T04:17:47;181.73;;;70.45;;
14066;SDS011;7108;42.684;23.350;2023-02-03T04:20:12;215.00;;;75.03;;
14066;SDS011;7108;42.684;23.350;2023-02-03T04:22:38;170.37;;;69.73;;
14066;SDS011;7108;42.684;23.350;2023-02-03T04:25:03;165.70;;;69.83;;
14066;SDS011;7108;42.684;23.350;2023-02-03T04:27:29;180.47;;;71.80;;
14066;SDS011;7108;42.684;23.350;2023-02-03T04:29:54;167.77;;;69.10;;
14066;SDS011;7108;42.684;23.350;2023-02-03T04:32:20;227.47;;;75.17;;
14066;SDS011;7108;42.684;23.350;2023-02-03T04:34:45;204.33;;;73.70;;
14066;SDS011;7108;42.684;23.350;2023-02-03T04:37:11;208.53;;;73.90;;
14066;SDS011;7108;42.684;23.350;2023-02-03T04:39:37;169.93;;;70.10;;
14066;SDS011;7108;42.684;23.350;2023-02-03T04:42:02;181.40;;;71.23;;
14066;SDS011;7108;42.684;23.350;2023-02-03T04:44:28;203.97;;;74.87;;
14066;SDS011;7108;42.684;23.350;2023-02-03T04:46:53;180.23;;;77.37;;
14066;SDS011;7108;42.684;23.350;2023-02-03T04:49:19;211.87;;;72.90;;
14066;SDS011;7108;42.684;23.350;2023-02-03T04:51:44;186.33;;;71.23;;
14066;SDS011;7108;42.684;23.350;2023-02-03T04:54:13;207.38;;;70.72;;
14066;SDS011;7108;42.684;23.350;2023-02-03T04:56:38;197.77;;;72.70;;
14066;SDS011;7108;42.684;23.350;2023-02-03T04:59:04;184.93;;;72.37;;
14066;SDS011;7108;42.684;23.350;2023-02-03T05:01:29;196.10;;;73.50;;
14066;SDS011;7108;42.684;23.350;2023-02-03T05:03:55;193.37;;;74.60;;
14066;SDS011;7108;42.684;23.350;2023-02-03T05:06:21;215.07;;;74.17;;
14066;SDS011;7108;42.684;23.350;2023-02-03T05:08:52;213.00;;;74.45;;
14066;SDS011;7108;42.684;23.350;2023-02-03T05:11:18;207.73;;;72.63;;
14066;SDS011;7108;42.684;23.350;2023-02-03T05:13:44;189.90;;;69.50;;
14066;SDS011;7108;42.684;23.350;2023-02-03T05:16:10;201.97;;;74.37;;
14066;SDS011;7108;42.684;23.350;2023-02-03T05:18:35;176.67;;;70.60;;
14066;SDS011;7108;42.684;23.350;2023-02-03T05:21:00;163.83;;;70.33;;
14066;SDS011;7108;42.684;23.350;2023-02-03T05:23:26;212.27;;;76.30;;
14066;SDS011;7108;42.684;23.350;2023-02-03T05:25:51;200.90;;;74.37;;
14066;SDS011;7108;42.684;23.350;2023-02-03T05:28:17;229.93;;;78.00;;
14066;SDS011;7108;42.684;23.350;2023-02-03T05:30:42;190.80;;;71.30;;
14066;SDS011;7108;42.684;23.350;2023-02-03T05:33:08;193.73;;;73.17;;
14066;SDS011;7108;42.684;23.350;2023-02-03T05:35:33;191.30;;;72.20;;
14066;SDS011;7108;42.684;23.350;2023-02-03T05:37:59;173.43;;;69.57;;
14066;SDS011;7108;42.684;23.350;2023-02-03T05:40:25;206.03;;;74.97;;
14066;SDS011;7108;42.684;23.350;2023-02-03T05:43:09;195.85;;;74.40;;
14066;SDS011;7108;42.684;23.350;2023-02-03T05:45:34;189.17;;;71.63;;
14066;SDS011;7108;42.684;23.350;2023-02-03T05:48:00;169.90;;;71.73;;
14066;SDS011;7108;42.684;23.350;2023-02-03T05:50:29;169.43;;;69.32;;
14066;SDS011;7108;42.684;23.350;2023-02-03T05:52:58;183.70;;;73.10;;
14066;SDS011;7108;42.684;23.350;2023-02-03T05:55:25;213.52;;;76.43;;
14066;SDS011;7108;42.684;23.350;2023-02-03T05:57:51;192.25;;;72.22;;
14066;SDS011;7108;42.684;23.350;2023-02-03T06:00:17;208.80;;;75.10;;
14066;SDS011;7108;42.684;23.350;2023-02-03T06:02:42;197.10;;;74.87;;
14066;SDS011;7108;42.684;23.350;2023-02-03T06:05:08;196.20;;;79.83;;
14066;SDS011;7108;42.684;23.350;2023-02-03T06:07:33;197.63;;;81.67;;
14066;SDS011;7108;42.684;23.350;2023-02-03T06:09:59;174.90;;;70.53;;
14066;SDS011;7108;42.684;23.350;2023-02-03T06:12:24;204.07;;;72.87;;
14066;SDS011;7108;42.684;23.350;2023-02-03T06:14:50;198.80;;;72.93;;
14066;SDS011;7108;42.684;23.350;2023-02-03T06:17:15;175.87;;;71.60;;
14066;SDS011;7108;42.684;23.350;2023-02-03T06:19:40;184.50;;;71.00;;
14066;SDS011;7108;42.684;23.350;2023-02-03T06:22:06;171.17;;;70.23;;
14066;SDS011;7108;42.684;23.350;2023-02-03T06:24:31;190.80;;;71.43;;
14066;SDS011;7108;42.684;23.350;2023-02-03T06:26:57;174.77;;;70.43;;
14066;SDS011;7108;42.684;23.350;2023-02-03T06:29:22;214.23;;;74.63;;
14066;SDS011;7108;42.684;23.350;2023-02-03T06:31:48;190.13;;;75.03;;
14066;SDS011;7108;42.684;23.350;2023-02-03T06:34:13;195.53;;;73.77;;
14066;SDS011;7108;42.684;23.350;2023-02-03T06:36:38;192.43;;;73.00;;
14066;SDS011;7108;42.684;23.350;2023-02-03T06:39:04;175.80;;;72.03;;
14066;SDS011;7108;42.684;23.350;2023-02-03T06:41:29;197.10;;;71.63;;
14066;SDS011;7108;42.684;23.350;2023-02-03T06:43:56;188.93;;;72.40;;
14066;SDS011;7108;42.684;23.350;2023-02-03T06:46:22;223.57;;;74.97;;
14066;SDS011;7108;42.684;23.350;2023-02-03T06:48:47;201.27;;;73.43;;
14066;SDS011;7108;42.684;23.350;2023-02-03T06:51:13;188.80;;;71.00;;
14066;SDS011;7108;42.684;23.350;2023-02-03T06:53:38;170.67;;;70.13;;
14066;SDS011;7108;42.684;23.350;2023-02-03T06:56:04;176.07;;;70.93;;
14066;SDS011;7108;42.684;23.350;2023-02-03T06:58:29;234.20;;;79.63;;
14066;SDS011;7108;42.684;23.350;2023-02-03T07:00:55;193.17;;;75.23;;
14066;SDS011;7108;42.684;23.350;2023-02-03T07:03:20;212.77;;;74.73;;
14066;SDS011;7108;42.684;23.350;2023-02-03T07:05:46;217.40;;;74.50;;
14066;SDS011;7108;42.684;23.350;2023-02-03T07:08:11;187.23;;;72.53;;
14066;SDS011;7108;42.684;23.350;2023-02-03T07:10:36;178.07;;;69.73;;
14066;SDS011;7108;42.684;23.350;2023-02-03T07:13:03;179.80;;;69.83;;
14066;SDS011;7108;42.684;23.350;2023-02-03T07:15:30;243.45;;;77.72;;
14066;SDS011;7108;42.684;23.350;2023-02-03T07:17:56;172.53;;;71.37;;
14066;SDS011;7108;42.684;23.350;2023-02-03T07:20:22;219.60;;;73.73;;
14066;SDS011;7108;42.684;23.350;2023-02-03T07:22:52;200.88;;;74.03;;
14066;SDS011;7108;42.684;23.350;2023-02-03T07:25:22;189.93;;;70.00;;
14066;SDS011;7108;42.684;23.350;2023-02-03T07:27:48;196.55;;;71.63;;
14066;SDS011;7108;42.684;23.350;2023-02-03T07:30:14;197.20;;;69.53;;
14066;SDS011;7108;42.684;23.350;2023-02-03T07:32:39;184.87;;;68.80;;
14066;SDS011;7108;42.684;23.350;2023-02-03T07:35:05;180.53;;;70.30;;
14066;SDS011;7108;42.684;23.350;2023-02-03T07:37:30;195.70;;;71.80;;
14066;SDS011;7108;42.684;23.350;2023-02-03T07:39:56;186.53;;;70.03;;
14066;SDS011;7108;42.684;23.350;2023-02-03T07:42:21;237.97;;;76.10;;
14066;SDS011;7108;42.684;23.350;2023-02-03T07:44:47;199.87;;;72.50;;
14066;SDS011;7108;42.684;23.350;2023-02-03T07:47:12;210.57;;;73.17;;
14066;SDS011;7108;42.684;23.350;2023-02-03T07:49:38;199.40;;;69.97;;
14066;SDS011;7108;42.684;23.350;2023-02-03T07:52:03;194.03;;;72.67;;
14066;SDS011;7108;42.684;23.350;2023-02-03T07:54:28;192.50;;;70.50;;
14066;SDS011;7108;42.684;23.350;2023-02-03T07:56:54;207.47;;;70.43;;
14066;SDS011;7108;42.684;23.350;2023-02-03T07:59:19;203.90;;;70.77;;
14066;SDS011;7108;42.684;23.350;2023-02-03T08:01:45;200.07;;;74.63;;
14066;SDS011;7108;42.684;23.350;2023-02-03T08:04:10;201.97;;;75.80;;
14066;SDS011;7108;42.684;23.350;2023-02-03T08:06:40;202.85;;;74.78;;
14066;SDS011;7108;42.684;23.350;2023-02-03T08:09:06;180.75;;;71.78;;
14066;SDS011;7108;42.684;23.350;2023-02-03T08:11:32;194.00;;;73.27;;
14066;SDS011;7108;42.684;23.350;2023-02-03T08:13:57;178.93;;;72.73;;
14066;SDS011;7108;42.684;23.350;2023-02-03T08:16:23;211.70;;;75.50;;
14066;SDS011;7108;42.684;23.350;2023-02-03T08:18:48;213.23;;;75.97;;
14066;SDS011;7108;42.684;23.350;2023-02-03T08:21:14;203.30;;;74.30;;
14066;SDS011;7108;42.684;23.350;2023-02-03T08:23:39;174.40;;;69.97;;
14066;SDS011;7108;42.684;23.350;2023-02-03T08:26:05;178.33;;;72.50;;
14066;SDS011;7108;42.684;23.350;2023-02-03T08:28:30;189.20;;;73.50;;
14066;SDS011;7108;42.684;23.350;2023-02-03T08:30:56;177.57;;;73.70;;
14066;SDS011;7108;42.684;23.350;2023-02-03T08:33:21;195.13;;;73.67;;
14066;SDS011;7108;42.684;23.350;2023-02-03T08:35:48;199.03;;;73.13;;
14066;SDS011;7108;42.684;23.350;2023-02-03T08:38:14;207.80;;;74.50;;
14066;SDS011;7108;42.684;23.350;2023-02-03T08:40:40;203.47;;;76.00;;
14066;SDS011;7108;42.684;23.350;2023-02-03T08:43:05;183.90;;;71.80;;
14066;SDS011;7108;42.684;23.350;2023-02-03T08:45:31;194.57;;;74.83;;
14066;SDS011;7108;42.684;23.350;2023-02-03T08:47:56;180.47;;;74.57;;
14066;SDS011;7108;42.684;23.350;2023-02-03T08:50:22;216.13;;;76.07;;
14066;SDS011;7108;42.684;23.350;2023-02-03T08:52:47;187.33;;;76.90;;
14066;SDS011;7108;42.684;23.350;2023-02-03T08:55:13;203.73;;;77.93;;
14066;SDS011;7108;42.684;23.350;2023-02-03T08:57:38;200.40;;;76.43;;
14066;SDS011;7108;42.684;23.350;2023-02-03T09:00:06;176.15;;;69.93;;
14066;SDS011;7108;42.684;23.350;2023-02-03T09:02:33;193.05;;;72.28;;
14066;SDS011;7108;42.684;23.350;2023-02-03T09:04:58;182.27;;;72.63;;
14066;SDS011;7108;42.684;23.350;2023-02-03T09:07:23;218.80;;;75.03;;
14066;SDS011;7108;42.684;23.350;2023-02-03T09:09:49;206.87;;;75.97;;
14066;SDS011;7108;42.684;23.350;2023-02-03T09:12:15;197.47;;;73.77;;
14066;SDS011;7108;42.684;23.350;2023-02-03T09:14:41;198.18;;;73.15;;
14066;SDS011;7108;42.684;23.350;2023-02-03T09:17:07;177.00;;;72.63;;
14066;SDS011;7108;42.684;23.350;2023-02-03T09:19:33;184.20;;;71.95;;
14066;SDS011;7108;42.684;23.350;2023-02-03T09:21:59;181.47;;;72.40;;
14066;SDS011;7108;42.684;23.350;2023-02-03T09:24:24;208.70;;;73.63;;
14066;SDS011;7108;42.684;23.350;2023-02-03T09:26:50;206.13;;;75.47;;
14066;SDS011;7108;42.684;23.350;2023-02-03T09:29:15;181.27;;;71.67;;
14066;SDS011;7108;42.684;23.350;2023-02-03T09:31:41;204.73;;;74.80;;
14066;SDS011;7108;42.684;23.350;2023-02-03T09:34:07;183.73;;;72.30;;
14066;SDS011;7108;42.684;23.350;2023-02-03T09:36:33;187.07;;;72.87;;
14066;SDS011;7108;42.684;23.350;2023-02-03T09:38:58;191.63;;;73.87;;
14066;SDS011;7108;42.684;23.350;2023-02-03T09:47:04;178.30;;;72.88;;
14066;SDS011;7108;42.684;23.350;2023-02-03T09:49:59;214.63;;;75.07;;
14066;SDS011;7108;42.684;23.350;2023-02-03T09:52:36;194.38;;;73.63;;
14066;SDS011;7108;42.684;23.350;2023-02-03T09:55:06;181.40;;;71.70;;
14066;SDS011;7108;42.684;23.350;2023-02-03T09:57:47;259.55;;;82.47;;
14066;SDS011;7108;42.684;23.350;2023-02-03T10:00:21;275.67;;;84.88;;
14066;SDS011;7108;42.684;23.350;2023-02-03T10:08:42;239.07;;;78.60;;
14066;SDS011;7108;42.684;23.350;2023-02-03T10:19:56;223.13;;;79.28;;
14066;SDS011;7108;42.684;23.350;2023-02-03T10:22:27;233.88;;;81.53;;
14066;SDS011;7108;42.684;23.350;2023-02-03T10:24:56;247.55;;;81.95;;
14066;SDS011;7108;42.684;23.350;2023-02-03T10:27:27;267.15;;;84.72;;
14066;SDS011;7108;42.684;23.350;2023-02-03T10:29:55;263.40;;;83.95;;
14066;SDS011;7108;42.684;23.350;2023-02-03T10:32:25;243.02;;;78.97;;
14066;SDS011;7108;42.684;23.350;2023-02-03T10:34:51;249.10;;;85.63;;
14066;SDS011;7108;42.684;23.350;2023-02-03T10:37:28;263.17;;;84.70;;
14066;SDS011;7108;42.684;23.350;2023-02-03T10:39:56;226.45;;;79.68;;
14066;SDS011;7108;42.684;23.350;2023-02-03T10:42:23;262.70;;;84.93;;
14066;SDS011;7108;42.684;23.350;2023-02-03T10:44:56;279.97;;;86.10;;
14066;SDS011;7108;42.684;23.350;2023-02-03T10:47:31;287.73;;;83.05;;
14066;SDS011;7108;42.684;23.350;2023-02-03T10:50:00;202.82;;;76.80;;
14066;SDS011;7108;42.684;23.350;2023-02-03T10:53:37;243.88;;;83.07;;
14066;SDS011;7108;42.684;23.350;2023-02-03T10:55:47;227.02;;;81.30;;
14066;SDS011;7108;42.684;23.350;2023-02-03T10:58:16;263.48;;;84.95;;
14066;SDS011;7108;42.684;23.350;2023-02-03T11:00:53;272.45;;;83.93;;
14066;SDS011;7108;42.684;23.350;2023-02-03T11:03:29;270.40;;;85.38;;
14066;SDS011;7108;42.684;23.350;2023-02-03T11:06:28;246.85;;;82.45;;
14066;SDS011;7108;42.684;23.350;2023-02-03T11:08:47;246.25;;;82.15;;
14066;SDS011;7108;42.684;23.350;2023-02-03T11:11:16;252.88;;;83.10;;
14066;SDS011;7108;42.684;23.350;2023-02-03T11:13:55;254.05;;;82.28;;
14066;SDS011;7108;42.684;23.350;2023-02-03T11:16:36;264.15;;;83.75;;
14066;SDS011;7108;42.684;23.350;2023-02-03T11:22:09;258.77;;;81.03;;
14066;SDS011;7108;42.684;23.350;2023-02-03T11:26:56;290.95;;;87.18;;
14066;SDS011;7108;42.684;23.350;2023-02-03T11:29:25;269.17;;;82.63;;
14066;SDS011;7108;42.684;23.350;2023-02-03T11:31:54;249.63;;;80.68;;
14066;SDS011;7108;42.684;23.350;2023-02-03T11:34:23;294.35;;;84.20;;
14066;SDS011;7108;42.684;23.350;2023-02-03T11:36:52;268.00;;;85.63;;
14066;SDS011;7108;42.684;23.350;2023-02-03T11:41:47;255.48;;;82.57;;
14066;SDS011;7108;42.684;23.350;2023-02-03T11:44:25;261.93;;;84.70;;
14066;SDS011;7108;42.684;23.350;2023-02-03T11:54:46;236.48;;;79.15;;
14066;SDS011;7108;42.684;23.350;2023-02-03T12:08:20;207.88;;;77.97;;
14066;SDS011;7108;42.684;23.350;2023-02-03T12:16:13;195.57;;;74.38;;
14066;SDS011;7108;42.684;23.350;2023-02-03T12:19:13;191.13;;;73.00;;
14066;SDS011;7108;42.684;23.350;2023-02-03T12:27:30;210.90;;;75.43;;
14066;SDS011;7108;42.684;23.350;2023-02-03T12:30:01;188.45;;;71.22;;
14066;SDS011;7108;42.684;23.350;2023-02-03T12:32:45;186.20;;;70.75;;
14066;SDS011;7108;42.684;23.350;2023-02-03T12:35:14;216.18;;;74.28;;
14066;SDS011;7108;42.684;23.350;2023-02-03T12:37:44;219.65;;;77.15;;
14066;SDS011;7108;42.684;23.350;2023-02-03T12:40:16;216.95;;;77.55;;
14066;SDS011;7108;42.684;23.350;2023-02-03T12:42:51;203.15;;;73.70;;
14066;SDS011;7108;42.684;23.350;2023-02-03T12:45:30;210.93;;;73.40;;
14066;SDS011;7108;42.684;23.350;2023-02-03T12:48:03;211.15;;;79.43;;
14066;SDS011;7108;42.684;23.350;2023-02-03T12:50:36;173.85;;;71.03;;
14066;SDS011;7108;42.684;23.350;2023-02-03T12:53:16;202.57;;;75.03;;
14066;SDS011;7108;42.684;23.350;2023-02-03T13:01:17;199.52;;;76.07;;
14066;SDS011;7108;42.684;23.350;2023-02-03T13:06:45;189.02;;;72.05;;
14066;SDS011;7108;42.684;23.350;2023-02-03T13:14:53;212.60;;;74.70;;
14066;SDS011;7108;42.684;23.350;2023-02-03T13:17:28;211.02;;;73.93;;
14066;SDS011;7108;42.684;23.350;2023-02-03T13:20:04;190.23;;;71.18;;
14066;SDS011;7108;42.684;23.350;2023-02-03T13:22:37;244.73;;;92.10;;
14066;SDS011;7108;42.684;23.350;2023-02-03T13:43:59;190.35;;;72.50;;
14066;SDS011;7108;42.684;23.350;2023-02-03T13:46:26;214.35;;;75.22;;
14066;SDS011;7108;42.684;23.350;2023-02-03T13:48:55;207.48;;;76.68;;
14066;SDS011;7108;42.684;23.350;2023-02-03T13:51:28;215.93;;;76.00;;
14066;SDS011;7108;42.684;23.350;2023-02-03T13:54:03;198.38;;;74.07;;
14066;SDS011;7108;42.684;23.350;2023-02-03T13:56:32;202.07;;;72.85;;
14066;SDS011;7108;42.684;23.350;2023-02-03T14:01:35;197.20;;;74.50;;
14066;SDS011;7108;42.684;23.350;2023-02-03T14:04:03;196.32;;;72.18;;
14066;SDS011;7108;42.684;23.350;2023-02-03T14:09:22;192.95;;;73.30;;
14066;SDS011;7108;42.684;23.350;2023-02-03T14:14:43;212.65;;;75.85;;
14066;SDS011;7108;42.684;23.350;2023-02-03T14:19:59;187.77;;;73.75;;
14066;SDS011;7108;42.684;23.350;2023-02-03T14:22:26;196.82;;;78.13;;
14066;SDS011;7108;42.684;23.350;2023-02-03T14:24:51;188.83;;;73.47;;
14066;SDS011;7108;42.684;23.350;2023-02-03T14:27:24;205.40;;;72.40;;
14066;SDS011;7108;42.684;23.350;2023-02-03T14:35:16;235.70;;;79.80;;
14066;SDS011;7108;42.684;23.350;2023-02-03T14:37:50;254.43;;;83.18;;
14066;SDS011;7108;42.684;23.350;2023-02-03T14:43:15;253.60;;;80.97;;
14066;SDS011;7108;42.684;23.350;2023-02-03T14:54:25;254.82;;;79.90;;
14066;SDS011;7108;42.684;23.350;2023-02-03T15:00:05;254.73;;;82.40;;
14066;SDS011;7108;42.684;23.350;2023-02-03T15:05:44;241.35;;;78.53;;
14066;SDS011;7108;42.684;23.350;2023-02-03T15:11:05;231.32;;;79.05;;
14066;SDS011;7108;42.684;23.350;2023-02-03T15:13:39;277.05;;;82.43;;
14066;SDS011;7108;42.684;23.350;2023-02-03T15:16:05;263.70;;;83.70;;
14066;SDS011;7108;42.684;23.350;2023-02-03T15:18:40;266.48;;;82.10;;
14066;SDS011;7108;42.684;23.350;2023-02-03T15:21:13;256.13;;;80.70;;
14066;SDS011;7108;42.684;23.350;2023-02-03T15:23:42;275.20;;;83.40;;
14066;SDS011;7108;42.684;23.350;2023-02-03T15:26:19;276.08;;;83.60;;
14066;SDS011;7108;42.684;23.350;2023-02-03T15:28:58;274.13;;;85.30;;
14066;SDS011;7108;42.684;23.350;2023-02-03T15:31:30;280.25;;;83.95;;
14066;SDS011;7108;42.684;23.350;2023-02-03T15:34:01;262.73;;;81.53;;
14066;SDS011;7108;42.684;23.350;2023-02-03T15:36:42;292.92;;;84.72;;
14066;SDS011;7108;42.684;23.350;2023-02-03T15:39:15;267.13;;;83.18;;
14066;SDS011;7108;42.684;23.350;2023-02-03T15:41:48;287.73;;;85.90;;
14066;SDS011;7108;42.684;23.350;2023-02-03T15:44:58;239.88;;;78.13;;
14066;SDS011;7108;42.684;23.350;2023-02-03T15:47:35;266.00;;;82.38;;
14066;SDS011;7108;42.684;23.350;2023-02-03T15:50:07;245.32;;;81.35;;
14066;SDS011;7108;42.684;23.350;2023-02-03T15:52:41;257.73;;;81.50;;
14066;SDS011;7108;42.684;23.350;2023-02-03T15:55:20;271.40;;;84.07;;
14066;SDS011;7108;42.684;23.350;2023-02-03T15:57:50;254.30;;;80.93;;
14066;SDS011;7108;42.684;23.350;2023-02-03T16:02:45;276.75;;;89.40;;
14066;SDS011;7108;42.684;23.350;2023-02-03T16:05:20;284.57;;;83.03;;
14066;SDS011;7108;42.684;23.350;2023-02-03T16:07:50;280.27;;;84.57;;
14066;SDS011;7108;42.684;23.350;2023-02-03T16:10:49;268.67;;;82.75;;
14066;SDS011;7108;42.684;23.350;2023-02-03T16:13:27;261.02;;;82.60;;
14066;SDS011;7108;42.684;23.350;2023-02-03T16:16:02;269.08;;;82.00;;
14066;SDS011;7108;42.684;23.350;2023-02-03T16:18:39;276.48;;;83.80;;
14066;SDS011;7108;42.684;23.350;2023-02-03T16:21:28;260.50;;;82.85;;
14066;SDS011;7108;42.684;23.350;2023-02-03T16:24:04;266.83;;;82.75;;
14066;SDS011;7108;42.684;23.350;2023-02-03T16:26:30;265.05;;;82.50;;
14066;SDS011;7108;42.684;23.350;2023-02-03T16:31:53;278.77;;;85.30;;
14066;SDS011;7108;42.684;23.350;2023-02-03T16:34:37;242.65;;;79.30;;
14066;SDS011;7108;42.684;23.350;2023-02-03T16:37:28;294.17;;;83.75;;
14066;SDS011;7108;42.684;23.350;2023-02-03T16:40:21;271.73;;;84.97;;
14066;SDS011;7108;42.684;23.350;2023-02-03T16:43:13;239.48;;;80.28;;
14066;SDS011;7108;42.684;23.350;2023-02-03T16:45:58;244.57;;;81.05;;
14066;SDS011;7108;42.684;23.350;2023-02-03T16:48:43;249.02;;;80.03;;
14066;SDS011;7108;42.684;23.350;2023-02-03T16:51:31;260.27;;;86.30;;
14066;SDS011;7108;42.684;23.350;2023-02-03T16:54:10;259.70;;;81.32;;
14066;SDS011;7108;42.684;23.350;2023-02-03T16:56:38;251.60;;;85.70;;
14066;SDS011;7108;42.684;23.350;2023-02-03T16:59:03;269.40;;;92.77;;